»·PEaware :: N7375Q L22-KTOA

N7375Q :: L22-KTOA

FLIGHT INFORMATION

Flight Status: Arrived
Operator: Privately registered:
United States
More flights under this callsign
Pilot: Ion I. (24133)
Aircraft: SOCATA TBM-900
(TBM9)
More flights by this aircraft type
Origin: L22 Yucca Valley
United States
Destination: KTOA Zamperini
United States
More flights between these airports :: More routes between these airports
Route: KAYOH KAYOH7
File this flight plan on PilotEdge
Remarks:
Altitude:
(Current/Filed)
20,000ft
Speed:
(Current/Filed)
250kts
Departed: 31-Jul-20 10:56 AM
Arrived: 31-Jul-20 11:31 AM
Distance/Time
Traveled:
98nm/0:35
Distance/Time
To Go:
Arrived

Flight Plot

Page will automatically refresh every two minutes.

Flight plan parsing failed; only flown route is shown


Map Options




Map Legend


Flown Route
Filed Route
Departure Airport
Arrival Airport
Navaid (VOR, NDB)
Fix

Horizontal Profiles

Position Reports

Time Latitude Longitude Heading Altitude Ground
Speed
31-Jul-20 10:43 34.128755 -116.406561 67 3218ft 0kts
31-Jul-20 10:43 34.128755 -116.406561 67 3218ft 0kts
31-Jul-20 10:45 34.128755 -116.406561 67 3218ft 0kts
31-Jul-20 10:46 34.128755 -116.406561 67 3218ft 0kts
31-Jul-20 10:46 34.128755 -116.406561 67 3218ft 0kts
31-Jul-20 10:47 34.128755 -116.406561 67 3218ft 0kts
31-Jul-20 10:49 34.128755 -116.406561 67 3218ft 0kts
31-Jul-20 10:50 34.128890 -116.405659 90 3214ft 4kts
31-Jul-20 10:50 34.129386 -116.405060 1 3210ft 2kts
31-Jul-20 10:51 34.130415 -116.405063 37 3208ft 0kts
31-Jul-20 10:53 34.130611 -116.404392 70 3207ft 12kts
31-Jul-20 10:53 34.131481 -116.400897 158 3207ft 9kts
31-Jul-20 10:54 34.131518 -116.400509 23 3206ft 5kts
31-Jul-20 10:55 34.127604 -116.414022 249 3460ft 108kts
31-Jul-20 10:56 34.101639 -116.433274 180 5174ft 139kts
31-Jul-20 10:57 34.063180 -116.431779 183 7600ft 140kts
31-Jul-20 10:58 34.024924 -116.432121 182 9937ft 140kts
31-Jul-20 10:59 33.985496 -116.431649 184 12180ft 143kts
31-Jul-20 11:00 33.946280 -116.431056 183 14355ft 137kts
31-Jul-20 11:01 33.907389 -116.430443 183 16432ft 149kts
31-Jul-20 11:02 33.871172 -116.443298 256 18443ft 152kts
31-Jul-20 11:03 33.865368 -116.497489 261 19869ft 202kts
31-Jul-20 11:04 33.858996 -116.579920 262 19064ft 283kts
31-Jul-20 11:05 33.851968 -116.674800 262 17676ft 305kts
31-Jul-20 11:06 33.844964 -116.768616 262 16314ft 306kts
31-Jul-20 11:07 33.837265 -116.870375 262 14854ft 305kts
31-Jul-20 11:08 33.829649 -116.970106 261 13940ft 283kts
31-Jul-20 11:09 33.822542 -117.061899 261 13344ft 283kts
31-Jul-20 11:10 33.814857 -117.159783 261 11363ft 298kts
31-Jul-20 11:11 33.807232 -117.256061 263 9346ft 272kts
31-Jul-20 11:12 33.800268 -117.343943 264 7928ft 251kts
31-Jul-20 11:13 33.793756 -117.425224 264 7920ft 240kts
31-Jul-20 11:14 33.787281 -117.505171 264 7913ft 237kts
31-Jul-20 11:15 33.780819 -117.584230 264 7902ft 236kts
31-Jul-20 11:16 33.780719 -117.663308 266 7991ft 234kts
31-Jul-20 11:17 33.771456 -117.739290 261 6138ft 218kts
31-Jul-20 11:18 33.762427 -117.808960 261 4108ft 205kts
31-Jul-20 11:19 33.754229 -117.874955 261 2986ft 190kts
31-Jul-20 11:20 33.746218 -117.940727 261 3003ft 212kts
31-Jul-20 11:21 33.737327 -118.014565 261 2991ft 220kts
31-Jul-20 11:22 33.728568 -118.087749 263 2555ft 225kts
31-Jul-20 11:23 33.724366 -118.162512 265 1991ft 211kts
31-Jul-20 11:24 33.734415 -118.223360 286 2032ft 150kts
31-Jul-20 11:25 33.748846 -118.256251 307 2006ft 87kts
31-Jul-20 11:26 33.763017 -118.277692 305 1471ft 75kts
31-Jul-20 11:27 33.776296 -118.297291 304 1033ft 75kts
31-Jul-20 11:28 33.789215 -118.316989 304 565ft 73kts
31-Jul-20 11:29 33.801711 -118.335956 307 98ft 63kts
31-Jul-20 11:30 33.805623 -118.342939 288 93ft 19kts
31-Jul-20 11:31 33.804356 -118.345295 128 94ft 13kts
31-Jul-20 11:32 33.801575 -118.341583 83 102ft 6kts
31-Jul-20 11:33 33.801646 -118.341479 39 102ft 0kts
31-Jul-20 11:34 33.801646 -118.341479 39 102ft 0kts
31-Jul-20 11:35 33.801646 -118.341479 39 102ft 0kts
31-Jul-20 11:36 33.801646 -118.341479 39 102ft 0kts
31-Jul-20 11:37 33.801646 -118.341479 39 102ft 0kts
31-Jul-20 11:38 33.801646 -118.341479 39 102ft 0kts
31-Jul-20 11:39 33.801646 -118.341479 39 102ft 0kts
31-Jul-20 11:40 33.801646 -118.341479 39 102ft 0kts
31-Jul-20 11:41 33.801646 -118.341479 39 102ft 0kts
31-Jul-20 11:42 33.801646 -118.341479 39 102ft 0kts
31-Jul-20 11:43 33.801646 -118.341479 39 102ft 0kts
31-Jul-20 11:44 33.801646 -118.341479 39 102ft 0kts
31-Jul-20 11:45 33.801646 -118.341479 39 102ft 0kts

Navigation Log

Ident Type
Flight plan parsing failed, navigation log unavailable